sensor_id;sensor_type;location;lat;lon;timestamp;P1;durP1;ratioP1;P2;durP2;ratioP2
46881;SDS011;44112;38.408;-122.974;2022-09-09T00:03:43;11.88;;;4.70;;
46881;SDS011;44112;38.408;-122.974;2022-09-09T00:06:21;8.63;;;4.90;;
46881;SDS011;44112;38.408;-122.974;2022-09-09T00:11:50;10.38;;;4.95;;
46881;SDS011;44112;38.408;-122.974;2022-09-09T00:17:09;8.45;;;4.80;;
46881;SDS011;44112;38.408;-122.974;2022-09-09T00:22:53;8.45;;;4.90;;
46881;SDS011;44112;38.408;-122.974;2022-09-09T00:28:44;10.10;;;5.00;;
46881;SDS011;44112;38.408;-122.974;2022-09-09T00:31:20;8.63;;;5.15;;
46881;SDS011;44112;38.408;-122.974;2022-09-09T00:33:53;9.48;;;5.20;;
46881;SDS011;44112;38.408;-122.974;2022-09-09T00:36:24;8.80;;;4.85;;
46881;SDS011;44112;38.408;-122.974;2022-09-09T00:38:58;8.98;;;4.82;;
46881;SDS011;44112;38.408;-122.974;2022-09-09T00:49:42;8.90;;;4.85;;
46881;SDS011;44112;38.408;-122.974;2022-09-09T00:55:05;9.80;;;4.72;;
46881;SDS011;44112;38.408;-122.974;2022-09-09T00:57:41;9.55;;;5.10;;
46881;SDS011;44112;38.408;-122.974;2022-09-09T01:03:04;9.27;;;5.23;;
46881;SDS011;44112;38.408;-122.974;2022-09-09T01:09:02;8.25;;;5.43;;
46881;SDS011;44112;38.408;-122.974;2022-09-09T01:12:03;8.25;;;4.65;;
46881;SDS011;44112;38.408;-122.974;2022-09-09T01:14:42;10.82;;;5.53;;
46881;SDS011;44112;38.408;-122.974;2022-09-09T01:17:21;8.80;;;5.30;;
46881;SDS011;44112;38.408;-122.974;2022-09-09T01:27:51;12.05;;;5.57;;
46881;SDS011;44112;38.408;-122.974;2022-09-09T01:30:32;10.75;;;5.57;;
46881;SDS011;44112;38.408;-122.974;2022-09-09T01:33:03;10.65;;;5.82;;
46881;SDS011;44112;38.408;-122.974;2022-09-09T01:35:37;10.98;;;5.47;;
46881;SDS011;44112;38.408;-122.974;2022-09-09T01:38:22;10.35;;;6.13;;
46881;SDS011;44112;38.408;-122.974;2022-09-09T01:40:51;11.23;;;5.75;;
46881;SDS011;44112;38.408;-122.974;2022-09-09T01:43:19;10.48;;;5.47;;
46881;SDS011;44112;38.408;-122.974;2022-09-09T01:45:48;10.45;;;5.90;;
46881;SDS011;44112;38.408;-122.974;2022-09-09T01:48:19;10.80;;;5.80;;
46881;SDS011;44112;38.408;-122.974;2022-09-09T01:50:47;13.55;;;6.13;;
46881;SDS011;44112;38.408;-122.974;2022-09-09T01:53:15;12.25;;;5.90;;
46881;SDS011;44112;38.408;-122.974;2022-09-09T01:55:46;10.25;;;6.03;;
46881;SDS011;44112;38.408;-122.974;2022-09-09T01:58:37;11.35;;;5.90;;
46881;SDS011;44112;38.408;-122.974;2022-09-09T02:03:51;9.48;;;5.55;;
46881;SDS011;44112;38.408;-122.974;2022-09-09T02:09:07;11.75;;;5.35;;
46881;SDS011;44112;38.408;-122.974;2022-09-09T02:11:38;10.05;;;5.47;;
46881;SDS011;44112;38.408;-122.974;2022-09-09T02:14:06;10.43;;;5.32;;
46881;SDS011;44112;38.408;-122.974;2022-09-09T02:16:39;10.13;;;5.50;;
46881;SDS011;44112;38.408;-122.974;2022-09-09T02:19:32;11.93;;;5.90;;
46881;SDS011;44112;38.408;-122.974;2022-09-09T02:22:02;10.15;;;5.82;;
46881;SDS011;44112;38.408;-122.974;2022-09-09T02:24:29;10.20;;;5.78;;
46881;SDS011;44112;38.408;-122.974;2022-09-09T02:26:59;11.10;;;5.97;;
46881;SDS011;44112;38.408;-122.974;2022-09-09T02:29:31;11.00;;;6.03;;
46881;SDS011;44112;38.408;-122.974;2022-09-09T02:32:01;11.63;;;5.88;;
46881;SDS011;44112;38.408;-122.974;2022-09-09T02:34:31;9.77;;;5.40;;
46881;SDS011;44112;38.408;-122.974;2022-09-09T02:37:03;12.00;;;5.68;;
46881;SDS011;44112;38.408;-122.974;2022-09-09T02:39:32;10.15;;;5.47;;
46881;SDS011;44112;38.408;-122.974;2022-09-09T02:41:58;10.65;;;5.65;;
46881;SDS011;44112;38.408;-122.974;2022-09-09T02:44:25;9.88;;;5.72;;
46881;SDS011;44112;38.408;-122.974;2022-09-09T02:47:01;9.60;;;5.72;;
46881;SDS011;44112;38.408;-122.974;2022-09-09T02:52:33;13.25;;;6.15;;
46881;SDS011;44112;38.408;-122.974;2022-09-09T02:55:18;10.65;;;5.97;;
46881;SDS011;44112;38.408;-122.974;2022-09-09T02:57:50;9.55;;;5.10;;
46881;SDS011;44112;38.408;-122.974;2022-09-09T03:00:22;9.60;;;5.45;;
46881;SDS011;44112;38.408;-122.974;2022-09-09T03:02:50;9.35;;;5.68;;
46881;SDS011;44112;38.408;-122.974;2022-09-09T03:05:16;11.07;;;5.38;;
46881;SDS011;44112;38.408;-122.974;2022-09-09T03:07:43;10.52;;;5.50;;
46881;SDS011;44112;38.408;-122.974;2022-09-09T03:10:09;9.63;;;4.97;;
46881;SDS011;44112;38.408;-122.974;2022-09-09T03:12:35;10.20;;;5.43;;
46881;SDS011;44112;38.408;-122.974;2022-09-09T03:15:02;9.30;;;5.28;;
46881;SDS011;44112;38.408;-122.974;2022-09-09T03:17:29;8.40;;;5.10;;
46881;SDS011;44112;38.408;-122.974;2022-09-09T03:19:55;8.88;;;5.15;;
46881;SDS011;44112;38.408;-122.974;2022-09-09T03:22:23;8.48;;;4.88;;
46881;SDS011;44112;38.408;-122.974;2022-09-09T03:24:50;10.63;;;5.72;;
46881;SDS011;44112;38.408;-122.974;2022-09-09T03:27:18;8.50;;;5.03;;
46881;SDS011;44112;38.408;-122.974;2022-09-09T03:29:45;10.65;;;5.05;;
46881;SDS011;44112;38.408;-122.974;2022-09-09T03:32:12;9.38;;;4.93;;
46881;SDS011;44112;38.408;-122.974;2022-09-09T03:34:42;10.52;;;5.13;;
46881;SDS011;44112;38.408;-122.974;2022-09-09T03:37:09;8.90;;;4.95;;
46881;SDS011;44112;38.408;-122.974;2022-09-09T03:39:37;10.50;;;5.60;;
46881;SDS011;44112;38.408;-122.974;2022-09-09T03:42:03;8.05;;;4.50;;
46881;SDS011;44112;38.408;-122.974;2022-09-09T03:44:30;8.75;;;5.30;;
46881;SDS011;44112;38.408;-122.974;2022-09-09T03:46:57;8.35;;;5.22;;
46881;SDS011;44112;38.408;-122.974;2022-09-09T03:49:26;8.77;;;4.97;;
46881;SDS011;44112;38.408;-122.974;2022-09-09T03:51:56;8.27;;;5.03;;
46881;SDS011;44112;38.408;-122.974;2022-09-09T03:54:24;8.40;;;4.75;;
46881;SDS011;44112;38.408;-122.974;2022-09-09T03:56:51;8.70;;;4.93;;
46881;SDS011;44112;38.408;-122.974;2022-09-09T03:59:17;7.82;;;4.45;;
46881;SDS011;44112;38.408;-122.974;2022-09-09T04:01:44;9.10;;;4.35;;
46881;SDS011;44112;38.408;-122.974;2022-09-09T04:04:11;8.15;;;4.68;;
46881;SDS011;44112;38.408;-122.974;2022-09-09T04:06:38;8.70;;;5.10;;
46881;SDS011;44112;38.408;-122.974;2022-09-09T04:09:04;8.77;;;5.05;;
46881;SDS011;44112;38.408;-122.974;2022-09-09T04:11:31;8.50;;;4.45;;
46881;SDS011;44112;38.408;-122.974;2022-09-09T04:13:57;7.68;;;4.70;;
46881;SDS011;44112;38.408;-122.974;2022-09-09T04:16:24;6.65;;;4.03;;
46881;SDS011;44112;38.408;-122.974;2022-09-09T04:18:51;7.43;;;4.38;;
46881;SDS011;44112;38.408;-122.974;2022-09-09T04:21:18;7.00;;;4.20;;
46881;SDS011;44112;38.408;-122.974;2022-09-09T04:23:44;7.53;;;4.18;;
46881;SDS011;44112;38.408;-122.974;2022-09-09T04:26:11;7.15;;;4.20;;
46881;SDS011;44112;38.408;-122.974;2022-09-09T04:28:37;8.38;;;4.97;;
46881;SDS011;44112;38.408;-122.974;2022-09-09T04:31:04;7.88;;;4.60;;
46881;SDS011;44112;38.408;-122.974;2022-09-09T04:33:32;7.53;;;4.20;;
46881;SDS011;44112;38.408;-122.974;2022-09-09T04:35:59;7.43;;;4.30;;
46881;SDS011;44112;38.408;-122.974;2022-09-09T04:38:26;7.53;;;4.45;;
46881;SDS011;44112;38.408;-122.974;2022-09-09T04:40:52;7.82;;;4.32;;
46881;SDS011;44112;38.408;-122.974;2022-09-09T04:43:19;7.68;;;4.30;;
46881;SDS011;44112;38.408;-122.974;2022-09-09T04:45:47;7.30;;;3.97;;
46881;SDS011;44112;38.408;-122.974;2022-09-09T04:48:14;6.75;;;3.90;;
46881;SDS011;44112;38.408;-122.974;2022-09-09T04:50:41;6.88;;;4.10;;
46881;SDS011;44112;38.408;-122.974;2022-09-09T04:53:08;6.53;;;3.80;;
46881;SDS011;44112;38.408;-122.974;2022-09-09T04:55:35;6.70;;;4.03;;
46881;SDS011;44112;38.408;-122.974;2022-09-09T04:58:05;6.55;;;3.80;;
46881;SDS011;44112;38.408;-122.974;2022-09-09T05:00:33;6.82;;;4.07;;
46881;SDS011;44112;38.408;-122.974;2022-09-09T05:03:07;7.80;;;4.25;;
46881;SDS011;44112;38.408;-122.974;2022-09-09T05:05:37;9.98;;;4.47;;
46881;SDS011;44112;38.408;-122.974;2022-09-09T05:08:05;6.10;;;3.58;;
46881;SDS011;44112;38.408;-122.974;2022-09-09T05:10:34;6.28;;;3.72;;
46881;SDS011;44112;38.408;-122.974;2022-09-09T05:13:03;6.70;;;3.67;;
46881;SDS011;44112;38.408;-122.974;2022-09-09T05:15:30;6.22;;;3.83;;
46881;SDS011;44112;38.408;-122.974;2022-09-09T05:18:00;6.47;;;3.75;;
46881;SDS011;44112;38.408;-122.974;2022-09-09T05:20:27;6.70;;;4.10;;
46881;SDS011;44112;38.408;-122.974;2022-09-09T05:22:55;6.97;;;4.05;;
46881;SDS011;44112;38.408;-122.974;2022-09-09T05:25:22;6.45;;;3.67;;
46881;SDS011;44112;38.408;-122.974;2022-09-09T05:27:51;6.80;;;3.80;;
46881;SDS011;44112;38.408;-122.974;2022-09-09T05:30:20;6.75;;;3.65;;
46881;SDS011;44112;38.408;-122.974;2022-09-09T05:32:48;7.18;;;3.88;;
46881;SDS011;44112;38.408;-122.974;2022-09-09T05:35:15;6.57;;;3.80;;
46881;SDS011;44112;38.408;-122.974;2022-09-09T05:37:44;5.93;;;3.40;;
46881;SDS011;44112;38.408;-122.974;2022-09-09T05:40:11;6.22;;;3.42;;
46881;SDS011;44112;38.408;-122.974;2022-09-09T05:42:38;6.38;;;3.50;;
46881;SDS011;44112;38.408;-122.974;2022-09-09T05:45:05;6.75;;;3.38;;
46881;SDS011;44112;38.408;-122.974;2022-09-09T05:47:33;6.05;;;3.70;;
46881;SDS011;44112;38.408;-122.974;2022-09-09T05:50:00;6.75;;;3.30;;
46881;SDS011;44112;38.408;-122.974;2022-09-09T05:52:27;5.75;;;3.63;;
46881;SDS011;44112;38.408;-122.974;2022-09-09T05:54:54;5.80;;;3.50;;
46881;SDS011;44112;38.408;-122.974;2022-09-09T05:57:22;5.70;;;3.30;;
46881;SDS011;44112;38.408;-122.974;2022-09-09T05:59:50;5.95;;;3.53;;
46881;SDS011;44112;38.408;-122.974;2022-09-09T06:02:16;5.72;;;3.30;;
46881;SDS011;44112;38.408;-122.974;2022-09-09T06:04:43;6.10;;;3.88;;
46881;SDS011;44112;38.408;-122.974;2022-09-09T06:07:10;6.05;;;3.42;;
46881;SDS011;44112;38.408;-122.974;2022-09-09T06:09:39;5.68;;;3.50;;
46881;SDS011;44112;38.408;-122.974;2022-09-09T06:12:06;5.80;;;3.22;;
46881;SDS011;44112;38.408;-122.974;2022-09-09T06:14:33;6.43;;;3.45;;
46881;SDS011;44112;38.408;-122.974;2022-09-09T06:16:59;6.28;;;3.50;;
46881;SDS011;44112;38.408;-122.974;2022-09-09T06:19:27;7.25;;;3.88;;
46881;SDS011;44112;38.408;-122.974;2022-09-09T06:21:55;7.75;;;3.50;;
46881;SDS011;44112;38.408;-122.974;2022-09-09T06:24:22;13.85;;;4.15;;
46881;SDS011;44112;38.408;-122.974;2022-09-09T06:26:49;15.23;;;4.47;;
46881;SDS011;44112;38.408;-122.974;2022-09-09T06:29:17;10.45;;;4.13;;
46881;SDS011;44112;38.408;-122.974;2022-09-09T06:31:44;7.22;;;3.78;;
46881;SDS011;44112;38.408;-122.974;2022-09-09T06:34:12;9.63;;;4.07;;
46881;SDS011;44112;38.408;-122.974;2022-09-09T06:36:39;15.25;;;4.13;;
46881;SDS011;44112;38.408;-122.974;2022-09-09T06:39:06;11.68;;;3.72;;
46881;SDS011;44112;38.408;-122.974;2022-09-09T06:41:36;11.80;;;4.18;;
46881;SDS011;44112;38.408;-122.974;2022-09-09T06:44:03;9.93;;;3.65;;
46881;SDS011;44112;38.408;-122.974;2022-09-09T06:46:30;11.05;;;3.92;;
46881;SDS011;44112;38.408;-122.974;2022-09-09T06:48:58;12.88;;;3.90;;
46881;SDS011;44112;38.408;-122.974;2022-09-09T06:51:35;8.55;;;3.92;;
46881;SDS011;44112;38.408;-122.974;2022-09-09T06:54:07;8.00;;;3.58;;
46881;SDS011;44112;38.408;-122.974;2022-09-09T06:56:35;9.70;;;3.97;;
46881;SDS011;44112;38.408;-122.974;2022-09-09T06:59:06;7.22;;;3.70;;
46881;SDS011;44112;38.408;-122.974;2022-09-09T07:01:35;7.50;;;3.92;;
46881;SDS011;44112;38.408;-122.974;2022-09-09T07:04:03;7.32;;;4.10;;
46881;SDS011;44112;38.408;-122.974;2022-09-09T07:06:36;8.05;;;3.80;;
46881;SDS011;44112;38.408;-122.974;2022-09-09T07:09:05;9.05;;;3.80;;
46881;SDS011;44112;38.408;-122.974;2022-09-09T07:11:34;7.55;;;3.70;;
46881;SDS011;44112;38.408;-122.974;2022-09-09T07:14:04;7.07;;;3.55;;
46881;SDS011;44112;38.408;-122.974;2022-09-09T07:16:30;6.43;;;3.40;;
46881;SDS011;44112;38.408;-122.974;2022-09-09T07:18:58;7.18;;;3.63;;
46881;SDS011;44112;38.408;-122.974;2022-09-09T07:21:26;6.20;;;3.47;;
46881;SDS011;44112;38.408;-122.974;2022-09-09T07:23:54;7.10;;;3.60;;
46881;SDS011;44112;38.408;-122.974;2022-09-09T07:26:22;6.70;;;3.50;;
46881;SDS011;44112;38.408;-122.974;2022-09-09T07:28:50;8.45;;;3.58;;
46881;SDS011;44112;38.408;-122.974;2022-09-09T07:31:18;6.22;;;3.60;;
46881;SDS011;44112;38.408;-122.974;2022-09-09T07:33:46;6.25;;;3.28;;
46881;SDS011;44112;38.408;-122.974;2022-09-09T07:36:26;6.32;;;3.30;;
46881;SDS011;44112;38.408;-122.974;2022-09-09T07:39:02;6.75;;;3.45;;
46881;SDS011;44112;38.408;-122.974;2022-09-09T07:41:31;6.13;;;3.35;;
46881;SDS011;44112;38.408;-122.974;2022-09-09T07:44:09;7.78;;;3.45;;
46881;SDS011;44112;38.408;-122.974;2022-09-09T07:46:40;5.90;;;3.13;;
46881;SDS011;44112;38.408;-122.974;2022-09-09T07:49:08;5.45;;;3.30;;
46881;SDS011;44112;38.408;-122.974;2022-09-09T07:51:36;5.90;;;3.38;;
46881;SDS011;44112;38.408;-122.974;2022-09-09T07:54:07;6.05;;;3.50;;
46881;SDS011;44112;38.408;-122.974;2022-09-09T07:56:34;6.43;;;3.47;;
46881;SDS011;44112;38.408;-122.974;2022-09-09T07:59:02;5.93;;;3.25;;
46881;SDS011;44112;38.408;-122.974;2022-09-09T08:01:35;6.50;;;3.20;;
46881;SDS011;44112;38.408;-122.974;2022-09-09T08:04:07;7.22;;;3.42;;
46881;SDS011;44112;38.408;-122.974;2022-09-09T08:06:40;6.85;;;3.40;;
46881;SDS011;44112;38.408;-122.974;2022-09-09T08:09:13;5.50;;;3.20;;
46881;SDS011;44112;38.408;-122.974;2022-09-09T08:11:41;6.35;;;3.30;;
46881;SDS011;44112;38.408;-122.974;2022-09-09T08:14:08;5.55;;;3.15;;
46881;SDS011;44112;38.408;-122.974;2022-09-09T08:16:37;6.68;;;3.30;;
46881;SDS011;44112;38.408;-122.974;2022-09-09T08:19:06;6.40;;;3.33;;
46881;SDS011;44112;38.408;-122.974;2022-09-09T08:21:35;5.13;;;3.00;;
46881;SDS011;44112;38.408;-122.974;2022-09-09T08:24:04;6.10;;;3.40;;
46881;SDS011;44112;38.408;-122.974;2022-09-09T08:26:33;6.28;;;3.28;;
46881;SDS011;44112;38.408;-122.974;2022-09-09T08:29:01;6.60;;;3.33;;
46881;SDS011;44112;38.408;-122.974;2022-09-09T08:31:31;6.20;;;3.50;;
46881;SDS011;44112;38.408;-122.974;2022-09-09T08:34:03;6.20;;;3.40;;
46881;SDS011;44112;38.408;-122.974;2022-09-09T08:36:33;6.88;;;3.05;;
46881;SDS011;44112;38.408;-122.974;2022-09-09T08:39:02;7.07;;;3.30;;
46881;SDS011;44112;38.408;-122.974;2022-09-09T08:41:34;5.93;;;3.42;;
46881;SDS011;44112;38.408;-122.974;2022-09-09T08:44:27;7.22;;;3.40;;
46881;SDS011;44112;38.408;-122.974;2022-09-09T08:52:39;5.75;;;3.17;;
46881;SDS011;44112;38.408;-122.974;2022-09-09T08:55:27;5.30;;;2.92;;
46881;SDS011;44112;38.408;-122.974;2022-09-09T09:06:31;6.30;;;3.10;;
46881;SDS011;44112;38.408;-122.974;2022-09-09T09:11:55;9.10;;;3.78;;
46881;SDS011;44112;38.408;-122.974;2022-09-09T09:14:26;6.55;;;3.40;;
46881;SDS011;44112;38.408;-122.974;2022-09-09T09:19:37;7.53;;;3.70;;
46881;SDS011;44112;38.408;-122.974;2022-09-09T09:22:10;7.47;;;3.65;;
46881;SDS011;44112;38.408;-122.974;2022-09-09T09:24:52;6.80;;;3.40;;
46881;SDS011;44112;38.408;-122.974;2022-09-09T09:27:42;8.43;;;3.70;;
46881;SDS011;44112;38.408;-122.974;2022-09-09T09:30:19;8.32;;;3.53;;
46881;SDS011;44112;38.408;-122.974;2022-09-09T09:32:53;6.63;;;3.63;;
46881;SDS011;44112;38.408;-122.974;2022-09-09T09:35:20;6.30;;;3.30;;
46881;SDS011;44112;38.408;-122.974;2022-09-09T09:37:46;6.75;;;3.72;;
46881;SDS011;44112;38.408;-122.974;2022-09-09T09:40:15;6.32;;;3.30;;
46881;SDS011;44112;38.408;-122.974;2022-09-09T09:42:54;6.57;;;3.40;;
46881;SDS011;44112;38.408;-122.974;2022-09-09T09:45:35;7.00;;;3.60;;
46881;SDS011;44112;38.408;-122.974;2022-09-09T09:55:59;6.80;;;3.28;;
46881;SDS011;44112;38.408;-122.974;2022-09-09T09:58:27;8.55;;;3.45;;
46881;SDS011;44112;38.408;-122.974;2022-09-09T10:01:31;7.78;;;3.75;;
46881;SDS011;44112;38.408;-122.974;2022-09-09T10:06:51;8.85;;;3.60;;
46881;SDS011;44112;38.408;-122.974;2022-09-09T10:09:25;9.18;;;3.42;;
46881;SDS011;44112;38.408;-122.974;2022-09-09T10:14:41;7.28;;;3.40;;
46881;SDS011;44112;38.408;-122.974;2022-09-09T10:22:47;6.10;;;3.53;;
46881;SDS011;44112;38.408;-122.974;2022-09-09T10:28:19;6.53;;;3.50;;
46881;SDS011;44112;38.408;-122.974;2022-09-09T10:36:26;7.30;;;3.60;;
46881;SDS011;44112;38.408;-122.974;2022-09-09T10:39:17;5.68;;;3.28;;
46881;SDS011;44112;38.408;-122.974;2022-09-09T10:42:05;6.00;;;3.20;;
46881;SDS011;44112;38.408;-122.974;2022-09-09T10:44:53;7.07;;;3.47;;
46881;SDS011;44112;38.408;-122.974;2022-09-09T10:47:31;7.53;;;3.70;;
46881;SDS011;44112;38.408;-122.974;2022-09-09T10:50:25;6.35;;;3.63;;
46881;SDS011;44112;38.408;-122.974;2022-09-09T10:53:19;7.05;;;3.70;;
46881;SDS011;44112;38.408;-122.974;2022-09-09T10:55:59;7.40;;;3.75;;
46881;SDS011;44112;38.408;-122.974;2022-09-09T10:58:42;6.70;;;4.05;;
46881;SDS011;44112;38.408;-122.974;2022-09-09T11:01:19;7.22;;;4.25;;
46881;SDS011;44112;38.408;-122.974;2022-09-09T11:04:02;6.75;;;3.75;;
46881;SDS011;44112;38.408;-122.974;2022-09-09T11:06:54;6.43;;;3.70;;
46881;SDS011;44112;38.408;-122.974;2022-09-09T11:09:26;10.23;;;3.70;;
46881;SDS011;44112;38.408;-122.974;2022-09-09T11:11:57;7.85;;;3.78;;
46881;SDS011;44112;38.408;-122.974;2022-09-09T11:17:15;7.97;;;4.13;;
46881;SDS011;44112;38.408;-122.974;2022-09-09T11:19:49;7.82;;;4.40;;
46881;SDS011;44112;38.408;-122.974;2022-09-09T11:24:59;10.38;;;4.82;;
46881;SDS011;44112;38.408;-122.974;2022-09-09T11:38:57;9.30;;;4.43;;
46881;SDS011;44112;38.408;-122.974;2022-09-09T11:41:52;9.00;;;4.50;;
46881;SDS011;44112;38.408;-122.974;2022-09-09T11:44:25;7.72;;;4.22;;
46881;SDS011;44112;38.408;-122.974;2022-09-09T11:46:56;8.13;;;4.38;;
46881;SDS011;44112;38.408;-122.974;2022-09-09T11:49:26;9.63;;;4.55;;
46881;SDS011;44112;38.408;-122.974;2022-09-09T11:51:56;7.93;;;4.20;;
46881;SDS011;44112;38.408;-122.974;2022-09-09T11:54:33;7.88;;;4.35;;
46881;SDS011;44112;38.408;-122.974;2022-09-09T12:00:06;8.48;;;4.90;;
46881;SDS011;44112;38.408;-122.974;2022-09-09T12:02:53;8.05;;;4.60;;
46881;SDS011;44112;38.408;-122.974;2022-09-09T12:05:19;8.40;;;4.68;;
46881;SDS011;44112;38.408;-122.974;2022-09-09T12:10:52;7.80;;;4.40;;
46881;SDS011;44112;38.408;-122.974;2022-09-09T12:13:17;8.70;;;4.63;;
46881;SDS011;44112;38.408;-122.974;2022-09-09T12:15:54;7.63;;;4.50;;
46881;SDS011;44112;38.408;-122.974;2022-09-09T12:18:31;10.43;;;4.80;;
46881;SDS011;44112;38.408;-122.974;2022-09-09T12:21:18;8.88;;;4.68;;
46881;SDS011;44112;38.408;-122.974;2022-09-09T12:24:00;8.20;;;4.43;;
46881;SDS011;44112;38.408;-122.974;2022-09-09T12:26:47;8.38;;;4.47;;
46881;SDS011;44112;38.408;-122.974;2022-09-09T12:32:33;8.18;;;4.22;;
46881;SDS011;44112;38.408;-122.974;2022-09-09T12:35:03;8.20;;;4.47;;
46881;SDS011;44112;38.408;-122.974;2022-09-09T12:37:41;9.07;;;4.90;;
46881;SDS011;44112;38.408;-122.974;2022-09-09T12:40:30;8.57;;;4.80;;
46881;SDS011;44112;38.408;-122.974;2022-09-09T12:43:00;8.45;;;4.82;;
46881;SDS011;44112;38.408;-122.974;2022-09-09T12:45:47;9.43;;;5.18;;
46881;SDS011;44112;38.408;-122.974;2022-09-09T12:48:27;8.45;;;4.85;;
46881;SDS011;44112;38.408;-122.974;2022-09-09T12:50:59;9.10;;;4.65;;
46881;SDS011;44112;38.408;-122.974;2022-09-09T12:53:33;8.57;;;4.63;;
46881;SDS011;44112;38.408;-122.974;2022-09-09T12:56:03;8.38;;;4.80;;
46881;SDS011;44112;38.408;-122.974;2022-09-09T12:58:33;8.95;;;4.85;;
46881;SDS011;44112;38.408;-122.974;2022-09-09T13:01:02;8.32;;;4.68;;
46881;SDS011;44112;38.408;-122.974;2022-09-09T13:03:33;7.57;;;4.38;;
46881;SDS011;44112;38.408;-122.974;2022-09-09T13:06:11;10.55;;;5.03;;
46881;SDS011;44112;38.408;-122.974;2022-09-09T13:11:12;8.45;;;4.60;;
46881;SDS011;44112;38.408;-122.974;2022-09-09T13:13:43;7.80;;;4.90;;
46881;SDS011;44112;38.408;-122.974;2022-09-09T13:16:23;8.40;;;4.55;;
46881;SDS011;44112;38.408;-122.974;2022-09-09T13:19:15;8.13;;;4.78;;
46881;SDS011;44112;38.408;-122.974;2022-09-09T13:21:42;8.35;;;4.68;;
46881;SDS011;44112;38.408;-122.974;2022-09-09T13:24:26;7.75;;;4.40;;
46881;SDS011;44112;38.408;-122.974;2022-09-09T13:27:01;8.30;;;4.72;;
46881;SDS011;44112;38.408;-122.974;2022-09-09T13:29:30;7.72;;;4.45;;
46881;SDS011;44112;38.408;-122.974;2022-09-09T13:32:12;7.32;;;4.25;;
46881;SDS011;44112;38.408;-122.974;2022-09-09T13:34:52;7.60;;;4.43;;
46881;SDS011;44112;38.408;-122.974;2022-09-09T13:37:26;8.40;;;4.35;;
46881;SDS011;44112;38.408;-122.974;2022-09-09T13:40:00;7.53;;;4.43;;
46881;SDS011;44112;38.408;-122.974;2022-09-09T13:42:28;7.90;;;4.15;;
46881;SDS011;44112;38.408;-122.974;2022-09-09T13:45:00;8.57;;;4.50;;
46881;SDS011;44112;38.408;-122.974;2022-09-09T13:47:33;7.45;;;3.70;;
46881;SDS011;44112;38.408;-122.974;2022-09-09T13:52:49;7.15;;;4.10;;
46881;SDS011;44112;38.408;-122.974;2022-09-09T13:55:19;7.13;;;4.00;;
46881;SDS011;44112;38.408;-122.974;2022-09-09T13:57:54;7.55;;;4.18;;
46881;SDS011;44112;38.408;-122.974;2022-09-09T14:00:23;7.25;;;4.13;;
46881;SDS011;44112;38.408;-122.974;2022-09-09T14:02:50;8.00;;;4.13;;
46881;SDS011;44112;38.408;-122.974;2022-09-09T14:05:20;7.32;;;3.90;;
46881;SDS011;44112;38.408;-122.974;2022-09-09T14:07:47;7.18;;;4.05;;
46881;SDS011;44112;38.408;-122.974;2022-09-09T14:10:16;8.15;;;4.32;;
46881;SDS011;44112;38.408;-122.974;2022-09-09T14:12:42;7.25;;;4.18;;
46881;SDS011;44112;38.408;-122.974;2022-09-09T14:15:10;7.15;;;3.90;;
46881;SDS011;44112;38.408;-122.974;2022-09-09T14:17:37;7.05;;;4.13;;
46881;SDS011;44112;38.408;-122.974;2022-09-09T14:20:04;8.07;;;3.90;;
46881;SDS011;44112;38.408;-122.974;2022-09-09T14:22:34;7.07;;;4.18;;
46881;SDS011;44112;38.408;-122.974;2022-09-09T14:25:04;8.18;;;4.20;;
46881;SDS011;44112;38.408;-122.974;2022-09-09T14:27:31;6.03;;;3.70;;
46881;SDS011;44112;38.408;-122.974;2022-09-09T14:29:58;7.20;;;4.10;;
46881;SDS011;44112;38.408;-122.974;2022-09-09T14:32:26;6.72;;;3.95;;
46881;SDS011;44112;38.408;-122.974;2022-09-09T14:34:52;7.80;;;4.10;;
46881;SDS011;44112;38.408;-122.974;2022-09-09T14:37:19;7.47;;;4.07;;
46881;SDS011;44112;38.408;-122.974;2022-09-09T14:39:46;7.57;;;4.10;;
46881;SDS011;44112;38.408;-122.974;2022-09-09T14:42:15;7.90;;;4.20;;
46881;SDS011;44112;38.408;-122.974;2022-09-09T14:44:42;7.25;;;4.00;;
46881;SDS011;44112;38.408;-122.974;2022-09-09T14:47:08;6.82;;;3.70;;
46881;SDS011;44112;38.408;-122.974;2022-09-09T14:49:35;7.53;;;3.95;;
46881;SDS011;44112;38.408;-122.974;2022-09-09T14:52:03;6.30;;;3.50;;
46881;SDS011;44112;38.408;-122.974;2022-09-09T14:54:31;6.70;;;3.72;;
46881;SDS011;44112;38.408;-122.974;2022-09-09T14:56:58;6.63;;;3.85;;
46881;SDS011;44112;38.408;-122.974;2022-09-09T14:59:25;6.45;;;3.90;;
46881;SDS011;44112;38.408;-122.974;2022-09-09T15:01:52;6.13;;;3.80;;
46881;SDS011;44112;38.408;-122.974;2022-09-09T15:04:18;6.95;;;3.88;;
46881;SDS011;44112;38.408;-122.974;2022-09-09T15:06:45;7.43;;;4.30;;
46881;SDS011;44112;38.408;-122.974;2022-09-09T15:09:13;6.95;;;4.15;;
46881;SDS011;44112;38.408;-122.974;2022-09-09T15:11:40;6.72;;;3.72;;
46881;SDS011;44112;38.408;-122.974;2022-09-09T15:14:07;6.82;;;3.97;;
46881;SDS011;44112;38.408;-122.974;2022-09-09T15:16:34;7.35;;;3.78;;
46881;SDS011;44112;38.408;-122.974;2022-09-09T15:19:02;7.13;;;3.92;;
46881;SDS011;44112;38.408;-122.974;2022-09-09T15:21:31;6.38;;;3.78;;
46881;SDS011;44112;38.408;-122.974;2022-09-09T15:23:59;6.65;;;3.85;;
46881;SDS011;44112;38.408;-122.974;2022-09-09T15:26:27;6.60;;;3.90;;
46881;SDS011;44112;38.408;-122.974;2022-09-09T15:28:55;6.35;;;3.72;;
46881;SDS011;44112;38.408;-122.974;2022-09-09T15:31:25;6.18;;;3.78;;
46881;SDS011;44112;38.408;-122.974;2022-09-09T15:33:54;6.85;;;4.18;;
46881;SDS011;44112;38.408;-122.974;2022-09-09T15:36:46;5.78;;;3.35;;
46881;SDS011;44112;38.408;-122.974;2022-09-09T15:39:16;6.68;;;3.92;;
46881;SDS011;44112;38.408;-122.974;2022-09-09T15:41:44;6.20;;;3.60;;
46881;SDS011;44112;38.408;-122.974;2022-09-09T15:44:12;6.28;;;3.60;;
46881;SDS011;44112;38.408;-122.974;2022-09-09T15:46:40;6.63;;;4.00;;
46881;SDS011;44112;38.408;-122.974;2022-09-09T15:49:09;6.75;;;3.90;;
46881;SDS011;44112;38.408;-122.974;2022-09-09T15:51:42;7.55;;;3.65;;
46881;SDS011;44112;38.408;-122.974;2022-09-09T15:54:11;6.25;;;3.65;;
46881;SDS011;44112;38.408;-122.974;2022-09-09T15:56:39;6.05;;;3.80;;
46881;SDS011;44112;38.408;-122.974;2022-09-09T15:59:06;5.85;;;3.42;;
46881;SDS011;44112;38.408;-122.974;2022-09-09T16:01:33;6.72;;;3.90;;
46881;SDS011;44112;38.408;-122.974;2022-09-09T16:04:00;6.18;;;3.80;;
46881;SDS011;44112;38.408;-122.974;2022-09-09T16:06:27;6.05;;;3.70;;
46881;SDS011;44112;38.408;-122.974;2022-09-09T16:08:55;6.85;;;3.88;;
46881;SDS011;44112;38.408;-122.974;2022-09-09T16:11:27;6.25;;;3.72;;
46881;SDS011;44112;38.408;-122.974;2022-09-09T16:13:56;7.47;;;3.90;;
46881;SDS011;44112;38.408;-122.974;2022-09-09T16:16:24;6.80;;;3.80;;
46881;SDS011;44112;38.408;-122.974;2022-09-09T16:18:54;6.88;;;3.70;;
46881;SDS011;44112;38.408;-122.974;2022-09-09T16:21:26;6.00;;;3.60;;
46881;SDS011;44112;38.408;-122.974;2022-09-09T16:23:54;7.03;;;3.83;;
46881;SDS011;44112;38.408;-122.974;2022-09-09T16:26:22;6.47;;;3.85;;
46881;SDS011;44112;38.408;-122.974;2022-09-09T16:28:51;6.80;;;3.85;;
46881;SDS011;44112;38.408;-122.974;2022-09-09T16:31:21;6.57;;;4.00;;
46881;SDS011;44112;38.408;-122.974;2022-09-09T16:33:49;6.20;;;3.88;;
46881;SDS011;44112;38.408;-122.974;2022-09-09T16:36:18;6.50;;;3.72;;